Yamaguchi, Japan

8:35 AM JST on 三月 29, 2017 (GMT +0900)
Hofu Aero | | Change Station

高度 16 ft 34.03 °N, 131.55 °E | Updated 14 minutes ago

曇
46 °F
体感気温 42 °F
8
風 変数 風 から

今日
高い -- | 低 -- °F
--% 降水確率
昨日
高い -- | 低 -- °F
Precip. -- インチ
気圧 30.27 インチ
視程 6.2 マイル
わずか 3000 ft
だいたい曇 4500 ft
だいたい曇 8000 ft
体感気温(寒さ) 42 °F
露点温度 37 °F
湿度 71%
降水 0.00 インチ
積雪深 利用不可。
6:05 AM 6:32 PM
新月, 1% visible
SPECI RJOF 282321Z 36007KT 9999 FEW030 BKN045 BKN080 08/03 Q1025 RMK 1CU030 6SC045 7AS080 A3027
気圧 30.27 インチ
視程 6.2 マイル
わずか 3000 ft
だいたい曇 4500 ft
だいたい曇 8000 ft
体感気温(寒さ) 42 °F
露点温度 37 °F
湿度 71%
降水 0.00 インチ
積雪深 利用不可。
6:05 AM 6:32 PM
新月, 1% visible
SPECI RJOF 282321Z 36007KT 9999 FEW030 BKN045 BKN080 08/03 Q1025 RMK 1CU030 6SC045 7AS080 A3027

Get Severe Weather Alerts

Thanks for signing up!

Be on the lookout for a verification email in your inbox.

You'll start receiving the daily forecast at 8 AM.

×

10-Day Weather Forecast

No radar image for this location.
×

Almanac

天文

Mar. 29, 2017 入り
実時間
常用薄明
航海薄明
天文薄明
可視光の長さ
可照時間
Tomorrow will be .
, % of the Moon is Illuminated

今日の極値

Country Highs Country Lows

Community

WunderPhotos

Upload Photos

1,962,540 写真がアップロードされました!

WunderBlog® & News

Nearby

空気品質

  空気品質 大気質指数 汚染物質
Not available.

積雪深

Station Depth 高度

地震活動

Distance Mag. Time & Date
Minimum magnitude displayed is 2.5.

地震活動

Distance Mag. Time & Date
Minimum magnitude displayed is 2.5.

沿岸の水温

地名 気温

Stations

最寄りの気象観測所

観測所位置 温度 体感気温(寒さ) 露点温度 湿度 Precip. 高度 更新日時 タイプする